createdAt,value
2018-03-20T00:00:02.347Z,14.00
2018-03-20T00:02:32.253Z,15.07
2018-03-20T00:05:02.931Z,14.23
2018-03-20T00:07:33.469Z,16.60
2018-03-20T00:10:02.843Z,13.13
2018-03-20T00:12:32.771Z,12.37
2018-03-20T00:15:02.228Z,17.15
2018-03-20T00:17:32.758Z,15.32
2018-03-20T00:20:02.776Z,12.45
2018-03-20T00:22:32.795Z,15.73
2018-03-20T00:25:03.465Z,13.70
2018-03-20T00:27:34.327Z,18.17
2018-03-20T00:30:04.698Z,13.88
2018-03-20T00:32:36.006Z,14.63
2018-03-20T00:35:05.499Z,15.23
2018-03-20T00:37:35.632Z,14.35
2018-03-20T00:40:06.074Z,16.35
2018-03-20T00:42:35.127Z,15.38
2018-03-20T00:45:04.608Z,19.33
2018-03-20T00:47:34.387Z,13.15
2018-03-20T00:50:04.639Z,17.70
2018-03-20T00:52:34.057Z,18.67
2018-03-20T00:55:05.503Z,13.32
2018-03-20T00:57:35.600Z,14.73
2018-03-20T01:00:05.317Z,17.25
2018-03-20T01:02:35.282Z,14.07
2018-03-20T01:05:05.139Z,14.75
2018-03-20T01:07:35.481Z,15.85
2018-03-20T01:10:05.150Z,15.75
2018-03-20T01:12:34.514Z,15.77
2018-03-20T01:15:03.602Z,14.50
2018-03-20T01:17:32.866Z,16.40
2018-03-20T01:20:02.619Z,15.90
2018-03-20T01:22:31.716Z,17.12
2018-03-20T01:25:00.914Z,15.52
2018-03-20T01:27:32.382Z,16.83
2018-03-20T01:30:02.097Z,14.02
2018-03-20T01:32:31.295Z,14.52
2018-03-20T01:35:00.706Z,14.73
2018-03-20T01:37:29.479Z,14.27
2018-03-20T01:39:58.808Z,16.10
2018-03-20T01:42:28.927Z,15.35
2018-03-20T01:44:59.208Z,17.73
2018-03-20T01:47:27.849Z,16.35
2018-03-20T01:49:56.322Z,14.48
2018-03-20T01:52:25.083Z,17.75
2018-03-20T01:54:53.776Z,16.95
2018-03-20T01:57:23.382Z,15.70
2018-03-20T01:59:52.928Z,17.45
2018-03-20T02:02:21.458Z,17.83
2018-03-20T02:04:50.695Z,19.02
2018-03-20T02:07:20.165Z,15.43
2018-03-20T02:09:48.942Z,15.18
2018-03-20T02:12:19.079Z,18.85
2018-03-20T02:14:47.559Z,31.70
2018-03-20T02:17:16.256Z,25.05
2018-03-20T02:19:45.104Z,23.60
2018-03-20T02:22:14.155Z,22.48
2018-03-20T02:24:44.911Z,29.60
2018-03-20T02:27:13.555Z,30.30
2018-03-20T02:29:42.043Z,28.00
2018-03-20T02:32:12.823Z,19.15
2018-03-20T02:34:41.886Z,21.85
2018-03-20T02:37:10.617Z,24.75
2018-03-20T02:39:38.893Z,20.80
2018-03-20T02:42:07.576Z,22.87
2018-03-20T02:44:37.473Z,26.05
2018-03-20T02:47:05.903Z,16.10
2018-03-20T02:49:34.969Z,16.70
2018-03-20T02:52:03.792Z,20.30
2018-03-20T02:54:33.069Z,20.08
2018-03-20T02:57:01.606Z,14.10
2018-03-20T02:59:30.836Z,17.37
2018-03-20T03:01:59.420Z,21.77
2018-03-20T03:04:27.988Z,15.43
2018-03-20T03:06:56.497Z,13.07
2018-03-20T03:09:25.808Z,17.00
2018-03-20T03:11:54.401Z,13.82
2018-03-20T03:14:22.799Z,14.38
2018-03-20T03:16:51.161Z,16.35
2018-03-20T03:19:20.420Z,16.17
2018-03-20T03:21:49.170Z,16.15
2018-03-20T03:24:18.340Z,15.45
2018-03-20T03:26:47.340Z,19.80
2018-03-20T03:29:15.481Z,17.08
2018-03-20T03:31:44.043Z,17.98
2018-03-20T03:34:13.239Z,20.65
2018-03-20T03:36:42.884Z,16.27
2018-03-20T03:39:11.180Z,18.40
2018-03-20T03:41:40.378Z,16.30
2018-03-20T03:44:12.611Z,17.77
2018-03-20T03:46:41.234Z,16.60
2018-03-20T03:49:09.753Z,16.87
2018-03-20T03:51:38.676Z,20.35
2018-03-20T03:54:11.128Z,16.65
2018-03-20T03:56:44.388Z,18.70
2018-03-20T03:59:13.474Z,19.73
2018-03-20T04:01:41.757Z,17.52
2018-03-20T04:04:13.863Z,16.60
2018-03-20T04:06:43.844Z,19.77
2018-03-20T04:09:12.595Z,13.27
2018-03-20T04:11:41.936Z,16.12
2018-03-20T04:14:11.044Z,19.08
2018-03-20T04:16:40.765Z,16.75
2018-03-20T04:19:09.177Z,16.62
2018-03-20T04:21:38.022Z,16.40
2018-03-20T04:24:07.932Z,18.50
2018-03-20T04:26:36.100Z,15.65
2018-03-20T04:29:04.426Z,16.98
2018-03-20T04:31:32.696Z,21.23
2018-03-20T04:34:01.210Z,21.83
2018-03-20T04:36:30.657Z,19.60
2018-03-20T04:38:59.057Z,19.75
2018-03-20T04:41:27.553Z,17.90
2018-03-20T04:43:55.920Z,19.45
2018-03-20T04:46:25.111Z,18.42
2018-03-20T04:48:54.647Z,18.15
2018-03-20T04:51:23.209Z,16.52
2018-03-20T04:53:52.715Z,17.23
2018-03-20T04:56:22.343Z,18.05
2018-03-20T04:58:51.091Z,18.27
2018-03-20T05:01:19.774Z,21.33
2018-03-20T05:03:48.480Z,17.42
2018-03-20T05:06:18.002Z,19.02
2018-03-20T05:08:47.166Z,15.95
2018-03-20T05:11:15.499Z,20.12
2018-03-20T05:13:44.618Z,18.92
2018-03-20T05:16:13.552Z,16.85
2018-03-20T05:18:42.889Z,19.52
2018-03-20T05:21:11.870Z,19.15
2018-03-20T05:23:40.769Z,25.10
2018-03-20T05:26:09.652Z,16.52
2018-03-20T05:28:38.627Z,22.23
2018-03-20T05:31:08.410Z,19.10
2018-03-20T05:33:38.231Z,19.58
2018-03-20T05:36:07.877Z,16.02
2018-03-20T05:38:36.810Z,16.62
2018-03-20T05:41:07.213Z,17.90
2018-03-20T05:43:36.402Z,24.98
2018-03-20T05:46:05.768Z,15.68
2018-03-20T05:48:36.710Z,18.40
2018-03-20T05:51:07.379Z,16.60
2018-03-20T05:53:36.848Z,18.45
2018-03-20T05:56:06.184Z,14.48
2018-03-20T05:58:35.333Z,16.85
2018-03-20T06:01:04.187Z,15.77
2018-03-20T06:03:33.645Z,16.27
2018-03-20T06:06:02.914Z,17.37
2018-03-20T06:08:32.980Z,16.12
2018-03-20T06:11:02.095Z,16.05
2018-03-20T06:13:31.306Z,13.02
2018-03-20T06:16:00.892Z,16.37
2018-03-20T06:18:30.464Z,16.55
2018-03-20T06:20:59.388Z,14.40
2018-03-20T06:23:28.218Z,16.37
2018-03-20T06:25:57.343Z,14.10
2018-03-20T06:28:27.268Z,17.35
2018-03-20T06:30:56.354Z,14.77
2018-03-20T06:33:25.235Z,19.00
2018-03-20T06:35:54.382Z,15.90
2018-03-20T06:38:23.614Z,15.60
2018-03-20T06:40:53.494Z,14.40
2018-03-20T06:43:22.596Z,17.17
2018-03-20T06:45:51.569Z,13.60
2018-03-20T06:48:20.242Z,13.77
2018-03-20T06:50:49.413Z,14.60
2018-03-20T06:53:18.144Z,16.77
2018-03-20T06:55:47.029Z,16.90
2018-03-20T06:58:15.977Z,14.82
2018-03-20T07:00:46.233Z,19.55
2018-03-20T07:03:15.482Z,17.92
2018-03-20T07:05:45.779Z,14.25
2018-03-20T07:08:16.427Z,18.23
2018-03-20T07:10:46.326Z,17.23
2018-03-20T07:13:15.919Z,23.73
2018-03-20T07:15:45.502Z,16.58
2018-03-20T07:18:15.004Z,16.12
2018-03-20T07:20:44.564Z,16.73
2018-03-20T07:23:13.807Z,14.82
2018-03-20T07:25:43.612Z,16.35
2018-03-20T07:28:13.217Z,21.10
2018-03-20T07:30:42.623Z,18.08
2018-03-20T07:33:12.363Z,16.83
2018-03-20T07:35:42.614Z,15.23
2018-03-20T07:38:13.056Z,15.13
2018-03-20T07:40:43.737Z,14.98
2018-03-20T07:43:13.368Z,14.07
2018-03-20T07:45:49.632Z,16.05
2018-03-20T07:48:19.172Z,39.40
2018-03-20T07:50:48.396Z,19.90
2018-03-20T07:53:17.616Z,16.73
2018-03-20T07:55:46.890Z,34.40
2018-03-20T07:58:16.479Z,15.40
2018-03-20T08:00:45.778Z,16.48
2018-03-20T08:03:16.196Z,15.23
2018-03-20T08:05:45.867Z,11.98
2018-03-20T08:08:15.059Z,15.15
2018-03-20T08:10:45.359Z,14.80
2018-03-20T08:13:15.912Z,12.77
2018-03-20T08:15:45.328Z,13.62
2018-03-20T08:18:16.148Z,13.02
2018-03-20T08:20:46.295Z,15.60
2018-03-20T08:23:17.236Z,12.85
2018-03-20T08:25:47.074Z,18.33
2018-03-20T08:28:17.610Z,13.27
2018-03-20T08:30:47.347Z,15.80
2018-03-20T08:33:17.817Z,12.07
2018-03-20T08:35:48.212Z,14.15
2018-03-20T08:38:17.518Z,13.18
2018-03-20T08:40:48.233Z,12.63
2018-03-20T08:43:18.377Z,15.90
2018-03-20T08:45:48.476Z,18.20
2018-03-20T08:48:17.638Z,20.77
2018-03-20T08:50:46.625Z,19.40
2018-03-20T08:53:15.976Z,15.07
2018-03-20T08:55:46.018Z,18.23
2018-03-20T08:58:16.442Z,14.68
2018-03-20T09:00:46.588Z,21.30
2018-03-20T09:03:16.141Z,18.20
2018-03-20T09:05:45.747Z,20.25
2018-03-20T09:08:15.049Z,15.20
2018-03-20T09:10:46.766Z,15.95
2018-03-20T09:13:16.673Z,17.45
2018-03-20T09:15:45.727Z,16.10
2018-03-20T09:18:15.877Z,15.40
2018-03-20T09:20:45.686Z,19.40
2018-03-20T09:23:14.631Z,21.05
2018-03-20T09:25:43.937Z,18.48
2018-03-20T09:28:13.637Z,16.35
2018-03-20T09:30:43.474Z,16.25
2018-03-20T09:33:12.973Z,20.08
2018-03-20T09:35:42.189Z,12.68
2018-03-20T09:38:11.450Z,19.20
2018-03-20T09:40:40.570Z,19.08
2018-03-20T09:43:11.127Z,14.50
2018-03-20T09:45:41.819Z,13.05
2018-03-20T09:48:12.387Z,20.35
2018-03-20T09:50:41.824Z,18.30
2018-03-20T09:53:11.014Z,21.48
2018-03-20T09:55:40.076Z,16.17
2018-03-20T09:58:09.029Z,14.52
2018-03-20T10:00:38.502Z,14.55
2018-03-20T10:03:08.536Z,13.27
2018-03-20T10:05:38.365Z,17.12
2018-03-20T10:08:09.929Z,18.25
2018-03-20T10:10:39.871Z,14.35
2018-03-20T10:13:09.478Z,16.25
2018-03-20T10:15:39.133Z,14.15
2018-03-20T10:18:08.173Z,14.95
2018-03-20T10:20:37.181Z,15.07
2018-03-20T10:23:07.557Z,21.00
2018-03-20T10:25:36.660Z,18.45
2018-03-20T10:28:06.853Z,17.25
2018-03-20T10:30:36.438Z,13.82
2018-03-20T10:33:05.412Z,14.23
2018-03-20T10:35:34.253Z,17.55
2018-03-20T10:38:03.346Z,21.02
2018-03-20T10:40:34.002Z,17.60
2018-03-20T10:43:04.624Z,15.93
2018-03-20T10:48:56.012Z,20.17
2018-03-20T10:51:25.821Z,18.37
2018-03-20T10:54:14.117Z,16.70
2018-03-20T10:56:44.534Z,15.13
2018-03-20T10:59:16.339Z,18.90
2018-03-20T11:01:45.748Z,16.77
2018-03-20T11:04:15.564Z,20.42
2018-03-20T11:06:45.134Z,20.58
2018-03-20T11:09:14.274Z,17.85
2018-03-20T11:11:44.336Z,17.30
2018-03-20T11:14:13.983Z,18.58
2018-03-20T11:16:43.990Z,14.55
2018-03-20T11:19:13.254Z,16.05
2018-03-20T11:21:43.309Z,15.32
2018-03-20T11:24:12.496Z,17.20
2018-03-20T11:26:42.218Z,22.17
2018-03-20T11:29:12.952Z,19.40
2018-03-20T11:31:42.731Z,17.95
2018-03-20T11:34:12.673Z,20.20
2018-03-20T11:39:18.176Z,15.85
2018-03-20T11:41:47.147Z,18.77
2018-03-20T11:44:16.791Z,19.12
2018-03-20T11:46:45.696Z,19.95
2018-03-20T11:49:15.386Z,20.85
2018-03-20T11:51:45.481Z,17.35
2018-03-20T11:54:15.521Z,17.85
2018-03-20T11:56:45.391Z,15.48
2018-03-20T11:59:14.762Z,16.70
2018-03-20T12:01:44.028Z,18.17
2018-03-20T12:04:13.002Z,16.00
2018-03-20T12:06:42.818Z,17.50
2018-03-20T12:09:17.999Z,18.23
2018-03-20T12:11:46.908Z,17.52
2018-03-20T12:14:17.634Z,18.73
2018-03-20T12:16:47.883Z,17.90
2018-03-20T12:19:18.016Z,18.20
2018-03-20T12:21:47.213Z,20.92
2018-03-20T12:24:17.113Z,23.62
2018-03-20T12:26:46.199Z,20.17
2018-03-20T12:29:15.366Z,20.05
2018-03-20T12:31:44.399Z,18.92
2018-03-20T12:34:13.238Z,25.48
2018-03-20T12:36:42.181Z,26.33
2018-03-20T12:39:11.783Z,18.92
2018-03-20T12:41:40.777Z,23.12
2018-03-20T12:44:09.972Z,19.60
2018-03-20T12:46:38.999Z,21.67
2018-03-20T12:49:08.562Z,24.73
2018-03-20T12:51:37.543Z,20.12
2018-03-20T12:54:06.903Z,17.05
2018-03-20T12:56:35.761Z,19.42
2018-03-20T12:59:05.684Z,17.95
2018-03-20T13:01:35.540Z,20.02
2018-03-20T13:04:04.549Z,24.77
2018-03-20T13:06:33.641Z,22.85
2018-03-20T13:09:02.506Z,18.55
2018-03-20T13:11:31.794Z,25.15
2018-03-20T13:14:00.756Z,21.92
2018-03-20T13:16:30.553Z,18.85
2018-03-20T13:19:00.414Z,21.15
2018-03-20T13:21:29.463Z,22.10
2018-03-20T13:23:58.398Z,20.62
2018-03-20T13:26:28.171Z,22.73
2018-03-20T13:28:57.920Z,17.83
2018-03-20T13:31:27.433Z,22.42
2018-03-20T13:33:56.456Z,21.77
2018-03-20T13:36:26.197Z,22.75
2018-03-20T13:38:55.372Z,16.37
2018-03-20T13:41:24.476Z,17.17
2018-03-20T13:43:53.411Z,20.73
2018-03-20T13:46:22.612Z,17.17
2018-03-20T13:48:54.090Z,12.20
2018-03-20T13:51:23.269Z,11.32
2018-03-20T13:53:52.309Z,10.57
2018-03-20T13:56:21.253Z,10.60
2018-03-20T13:58:50.163Z,10.55
2018-03-20T14:01:19.106Z,11.00
2018-03-20T14:03:48.017Z,11.05
2018-03-20T14:06:17.115Z,9.07
2018-03-20T14:08:45.895Z,8.10
2018-03-20T14:11:14.700Z,6.90
2018-03-20T14:13:43.828Z,9.98
2018-03-20T14:16:12.792Z,7.97
2018-03-20T14:18:41.746Z,8.70
2018-03-20T14:21:10.896Z,9.27
2018-03-20T14:23:47.681Z,7.03
2018-03-20T14:26:18.602Z,7.43
2018-03-20T14:28:49.706Z,8.27
2018-03-20T14:31:19.280Z,5.57
2018-03-20T14:33:48.777Z,6.53
2018-03-20T14:36:17.792Z,8.88
2018-03-20T14:38:47.467Z,9.27
2018-03-20T14:41:16.837Z,7.82
2018-03-20T14:43:45.758Z,6.97
2018-03-20T14:46:14.556Z,6.28
2018-03-20T14:48:43.365Z,6.65
2018-03-20T14:51:12.932Z,7.32
2018-03-20T14:53:42.592Z,7.80
2018-03-20T14:56:11.677Z,5.80
2018-03-20T14:58:40.979Z,7.15
2018-03-20T15:01:10.241Z,6.15
2018-03-20T15:03:39.333Z,6.78
2018-03-20T15:06:08.123Z,5.60
2018-03-20T15:08:36.938Z,6.60
2018-03-20T15:11:06.554Z,3.42
2018-03-20T15:13:35.484Z,6.03
2018-03-20T15:16:04.471Z,5.87
2018-03-20T15:18:33.869Z,5.53
2018-03-20T15:21:02.747Z,5.15
2018-03-20T15:23:32.473Z,4.40
2018-03-20T15:26:01.480Z,6.62
2018-03-20T15:28:30.342Z,5.37
2018-03-20T15:30:59.462Z,6.55
2018-03-20T15:33:28.359Z,5.72
2018-03-20T15:35:57.003Z,5.97
2018-03-20T15:38:25.772Z,5.60
2018-03-20T15:40:55.179Z,7.37
2018-03-20T15:43:24.422Z,5.72
2018-03-20T15:45:53.188Z,6.35
2018-03-20T15:48:21.868Z,6.00
2018-03-20T15:50:50.673Z,7.00
2018-03-20T15:53:20.485Z,5.43
2018-03-20T15:55:49.148Z,5.80
2018-03-20T15:58:17.866Z,5.62
2018-03-20T16:00:46.502Z,11.85
2018-03-20T16:03:15.888Z,7.15
2018-03-20T16:05:44.479Z,6.32
2018-03-20T16:08:14.064Z,8.95
2018-03-20T16:10:42.796Z,9.32
2018-03-20T16:13:11.438Z,7.10
2018-03-20T16:15:40.132Z,5.62
2018-03-20T16:18:08.770Z,8.00
2018-03-20T16:20:38.464Z,7.25
2018-03-20T16:23:07.092Z,8.13
2018-03-20T16:25:36.696Z,10.80
2018-03-20T16:28:05.262Z,7.12
2018-03-20T16:30:34.030Z,6.12
2018-03-20T16:33:02.777Z,8.52
2018-03-20T16:35:31.342Z,4.97
2018-03-20T16:37:59.914Z,7.30
2018-03-20T16:40:28.525Z,7.57
2018-03-20T16:42:58.015Z,5.75
2018-03-20T16:45:27.315Z,5.75
2018-03-20T16:47:57.539Z,5.07
2018-03-20T16:50:26.048Z,5.82
2018-03-20T16:52:55.431Z,7.05
2018-03-20T16:55:24.101Z,6.80
2018-03-20T16:57:52.878Z,5.50
2018-03-20T17:00:21.620Z,4.70
2018-03-20T17:02:50.477Z,7.15
2018-03-20T17:05:20.001Z,5.60
2018-03-20T17:07:49.532Z,5.80
2018-03-20T17:10:18.404Z,5.55
2018-03-20T17:12:47.080Z,7.00
2018-03-20T17:15:16.930Z,8.20
2018-03-20T17:17:45.866Z,6.72
2018-03-20T17:20:15.633Z,5.97
2018-03-20T17:22:44.467Z,7.15
2018-03-20T17:25:13.010Z,10.27
2018-03-20T17:27:41.676Z,9.93
2018-03-20T17:30:10.334Z,7.72
2018-03-20T17:32:39.155Z,7.53
2018-03-20T17:35:08.506Z,5.82
2018-03-20T17:37:38.016Z,9.57
2018-03-20T17:40:07.608Z,5.35
2018-03-20T17:42:36.205Z,5.28
2018-03-20T17:45:05.536Z,7.05
2018-03-20T17:47:34.730Z,5.82
2018-03-20T17:50:03.399Z,6.22
2018-03-20T17:52:32.600Z,6.60
2018-03-20T17:55:02.295Z,11.02
2018-03-20T17:57:32.304Z,8.95
2018-03-20T18:00:00.966Z,6.45
2018-03-20T18:02:29.688Z,57.55
2018-03-20T18:04:59.031Z,8.10
2018-03-20T18:07:27.870Z,7.40
2018-03-20T18:09:56.441Z,6.85
2018-03-20T18:12:24.996Z,7.57
2018-03-20T18:14:54.334Z,10.32
2018-03-20T18:17:23.053Z,10.00
2018-03-20T18:19:51.565Z,10.70
2018-03-20T18:22:21.442Z,14.15
2018-03-20T18:24:50.817Z,19.70
2018-03-20T18:27:20.695Z,16.95
2018-03-20T18:29:50.087Z,15.18
2018-03-20T18:32:18.819Z,12.35
2018-03-20T18:34:48.577Z,19.67
2018-03-20T18:37:17.298Z,20.00
2018-03-20T18:39:46.156Z,23.67
2018-03-20T18:42:14.626Z,32.13
2018-03-20T18:44:44.224Z,31.65
2018-03-20T18:47:13.506Z,25.95
2018-03-20T18:49:43.534Z,16.90
2018-03-20T18:52:12.066Z,22.23
2018-03-20T18:54:41.080Z,21.62
2018-03-20T18:57:09.900Z,16.58
2018-03-20T18:59:38.466Z,13.73
2018-03-20T19:02:08.458Z,13.40
2018-03-20T19:04:37.096Z,12.00
2018-03-20T19:07:05.976Z,14.95
2018-03-20T19:09:34.948Z,16.17
2018-03-20T19:12:04.427Z,31.58
2018-03-20T19:14:33.014Z,31.42
2018-03-20T19:17:02.471Z,29.05
2018-03-20T19:19:31.635Z,32.65
2018-03-20T19:22:01.523Z,40.75
2018-03-20T19:24:30.114Z,36.97
2018-03-20T19:26:58.796Z,40.40
2018-03-20T19:29:27.685Z,29.02
2018-03-20T19:31:56.547Z,25.77
2018-03-20T19:34:25.297Z,20.65
2018-03-20T19:36:57.337Z,18.83
2018-03-20T19:39:26.628Z,16.02
2018-03-20T19:41:55.425Z,19.30
2018-03-20T19:44:24.849Z,21.85
2018-03-20T19:46:53.531Z,21.55
2018-03-20T19:49:22.455Z,22.23
2018-03-20T19:51:52.575Z,20.00
2018-03-20T19:54:21.228Z,17.37
2018-03-20T19:56:50.369Z,18.48
2018-03-20T20:02:03.410Z,17.70
2018-03-20T20:04:32.766Z,17.33
2018-03-20T20:07:01.606Z,23.90
2018-03-20T20:09:30.379Z,25.48
2018-03-20T20:11:59.145Z,20.35
2018-03-20T20:14:27.773Z,25.02
2018-03-20T20:16:56.766Z,23.05
2018-03-20T20:19:25.675Z,24.50
2018-03-20T20:21:54.703Z,20.10
2018-03-20T20:24:23.667Z,18.23
2018-03-20T20:26:53.510Z,19.35
2018-03-20T20:29:22.413Z,14.25
2018-03-20T20:31:51.627Z,16.12
2018-03-20T20:34:20.298Z,14.80
2018-03-20T20:36:49.262Z,17.77
2018-03-20T20:39:18.046Z,15.77
2018-03-20T20:41:46.957Z,17.10
2018-03-20T20:44:16.804Z,17.10
2018-03-20T20:46:45.840Z,17.33
2018-03-20T20:49:14.556Z,19.62
2018-03-20T20:51:43.457Z,18.98
2018-03-20T20:54:12.193Z,23.62
2018-03-20T20:56:41.552Z,23.38
2018-03-20T20:59:10.207Z,19.92
2018-03-20T21:01:38.994Z,16.67
2018-03-20T21:04:08.203Z,21.58
2018-03-20T21:06:36.903Z,23.15
2018-03-20T21:09:06.212Z,26.25
2018-03-20T21:11:35.659Z,24.25
2018-03-20T21:14:05.349Z,26.08
2018-03-20T21:16:34.728Z,23.85
2018-03-20T21:19:03.440Z,25.95
2018-03-20T21:21:32.945Z,23.85
2018-03-20T21:24:02.650Z,21.50
2018-03-20T21:26:32.748Z,22.02
2018-03-20T21:29:01.374Z,22.08
2018-03-20T21:31:30.858Z,22.80
2018-03-20T21:34:00.430Z,24.02
2018-03-20T21:36:30.105Z,23.98
2018-03-20T21:38:59.277Z,21.87
2018-03-20T21:41:28.966Z,28.60
2018-03-20T21:43:57.560Z,22.30
2018-03-20T21:46:26.979Z,23.00
2018-03-20T21:48:56.451Z,21.83
2018-03-20T21:51:25.276Z,24.75
2018-03-20T21:53:54.503Z,25.70
2018-03-20T21:56:24.223Z,23.48
2018-03-20T21:58:53.059Z,23.27
2018-03-20T22:01:22.860Z,24.12
2018-03-20T22:03:52.527Z,24.85
2018-03-20T22:06:22.176Z,22.70
2018-03-20T22:08:51.676Z,23.12
2018-03-20T22:11:20.824Z,25.55
2018-03-20T22:13:50.037Z,24.30
2018-03-20T22:16:20.803Z,23.60
2018-03-20T22:18:49.985Z,26.05
2018-03-20T22:21:25.516Z,26.20
2018-03-20T22:23:56.291Z,24.27
2018-03-20T22:26:26.305Z,25.77
2018-03-20T22:28:56.539Z,22.73
2018-03-20T22:31:26.691Z,20.92
2018-03-20T22:33:55.644Z,23.23
2018-03-20T22:36:26.352Z,24.67
2018-03-20T22:38:56.461Z,23.75
2018-03-20T22:41:26.147Z,24.73
2018-03-20T22:43:55.483Z,23.83
2018-03-20T22:46:24.568Z,22.15
2018-03-20T22:48:54.231Z,21.98
2018-03-20T22:51:23.260Z,21.92
2018-03-20T22:53:52.693Z,21.60
2018-03-20T22:56:23.252Z,24.58
2018-03-20T22:58:52.307Z,20.60
2018-03-20T23:01:21.426Z,26.67
2018-03-20T23:03:51.047Z,22.23
2018-03-20T23:06:20.071Z,20.48
2018-03-20T23:08:49.192Z,22.60
2018-03-20T23:11:18.089Z,20.12
2018-03-20T23:13:47.548Z,20.25
2018-03-20T23:16:16.742Z,22.60
2018-03-20T23:18:46.197Z,21.87
2018-03-20T23:21:15.997Z,26.10
2018-03-20T23:23:45.831Z,22.55
2018-03-20T23:26:15.347Z,20.67
2018-03-20T23:28:45.062Z,25.35
2018-03-20T23:31:14.056Z,21.45
2018-03-20T23:33:43.057Z,26.37
2018-03-20T23:36:11.974Z,21.02
2018-03-20T23:38:41.071Z,23.10
2018-03-20T23:41:10.748Z,22.65
2018-03-20T23:43:39.796Z,23.58
2018-03-20T23:46:09.720Z,22.87
2018-03-20T23:48:39.821Z,23.55
2018-03-20T23:51:09.223Z,24.08
2018-03-20T23:53:38.656Z,25.85
2018-03-20T23:56:08.421Z,25.40
2018-03-20T23:58:38.217Z,21.55
